createdAt,value
2019-03-05T00:00:14.778Z,8.77
2019-03-05T00:02:42.566Z,3.27
2019-03-05T00:05:10.641Z,12.57
2019-03-05T00:07:38.342Z,7.70
2019-03-05T00:10:07.827Z,7.60
2019-03-05T00:12:35.525Z,4.07
2019-03-05T00:15:04.210Z,11.00
2019-03-05T00:17:31.940Z,7.07
2019-03-05T00:19:59.623Z,3.17
2019-03-05T00:22:27.356Z,7.87
2019-03-05T00:25:03.462Z,9.83
2019-03-05T00:27:35.055Z,2.93
2019-03-05T00:30:31.169Z,8.20
2019-03-05T00:33:13.028Z,12.23
2019-03-05T00:36:06.668Z,5.20
2019-03-05T00:39:18.058Z,10.70
2019-03-05T00:42:16.881Z,7.23
2019-03-05T00:45:27.977Z,8.73
2019-03-05T00:48:34.561Z,5.80
2019-03-05T00:51:27.655Z,4.87
2019-03-05T00:54:10.468Z,5.97
2019-03-05T00:56:49.322Z,9.73
2019-03-05T00:59:59.769Z,8.17
2019-03-05T01:02:50.062Z,9.30
2019-03-05T01:06:01.519Z,4.80
2019-03-05T01:08:31.873Z,8.50
2019-03-05T01:10:59.698Z,5.83
2019-03-05T01:13:27.530Z,9.03
2019-03-05T01:15:55.236Z,7.60
2019-03-05T01:18:22.978Z,5.60
2019-03-05T01:20:50.768Z,6.03
2019-03-05T01:23:19.686Z,5.63
2019-03-05T01:25:47.839Z,8.70
2019-03-05T01:28:15.553Z,3.53
2019-03-05T01:31:08.627Z,5.83
2019-03-05T01:33:48.793Z,8.07
2019-03-05T01:36:19.693Z,3.83
2019-03-05T01:38:54.789Z,9.43
2019-03-05T01:41:22.534Z,8.57
2019-03-05T01:43:50.220Z,9.10
2019-03-05T01:46:17.918Z,7.33
2019-03-05T01:48:45.652Z,5.07
2019-03-05T01:51:16.203Z,9.13
2019-03-05T01:53:43.929Z,10.10
2019-03-05T01:56:13.309Z,13.27
2019-03-05T01:58:41.314Z,4.13
2019-03-05T02:01:09.182Z,7.37
2019-03-05T02:03:37.147Z,7.63
2019-03-05T02:06:05.185Z,13.20
2019-03-05T02:08:33.195Z,3.87
2019-03-05T02:11:00.909Z,6.50
2019-03-05T02:13:28.634Z,8.87
2019-03-05T02:15:56.682Z,7.17
2019-03-05T02:18:26.142Z,6.93
2019-03-05T02:20:54.494Z,12.97
2019-03-05T02:23:47.225Z,11.23
2019-03-05T02:27:08.942Z,8.40
2019-03-05T02:30:04.332Z,4.60
2019-03-05T02:33:09.423Z,7.30
2019-03-05T02:36:05.445Z,6.17
2019-03-05T02:39:18.557Z,8.70
2019-03-05T02:42:13.062Z,7.60
2019-03-05T02:45:24.604Z,4.00
2019-03-05T02:48:28.346Z,8.50
2019-03-05T02:51:30.878Z,4.60
2019-03-05T02:54:36.171Z,9.63
2019-03-05T02:57:09.529Z,3.30
2019-03-05T02:59:37.443Z,5.30
2019-03-05T03:02:40.814Z,9.70
2019-03-05T03:05:27.008Z,2.67
2019-03-05T03:07:54.833Z,5.60
2019-03-05T03:10:24.184Z,4.83
2019-03-05T03:12:52.156Z,7.07
2019-03-05T03:15:19.900Z,8.77
2019-03-05T03:17:48.898Z,3.20
2019-03-05T03:20:17.939Z,7.47
2019-03-05T03:22:46.297Z,5.03
2019-03-05T03:25:19.129Z,23.20
2019-03-05T03:27:47.344Z,7.17
2019-03-05T03:30:16.864Z,8.37
2019-03-05T03:32:44.939Z,6.00
2019-03-05T03:35:13.749Z,7.67
2019-03-05T03:37:42.265Z,4.83
2019-03-05T03:40:18.666Z,3.73
2019-03-05T03:42:46.810Z,3.27
2019-03-05T03:45:17.167Z,6.03
2019-03-05T03:47:44.866Z,1.80
2019-03-05T03:50:13.087Z,4.70
2019-03-05T03:52:41.637Z,12.83
2019-03-05T03:55:10.493Z,2.87
2019-03-05T03:57:38.333Z,6.83
2019-03-05T04:00:08.534Z,4.20
2019-03-05T04:02:37.269Z,9.33
2019-03-05T04:05:05.829Z,5.20
2019-03-05T04:07:33.628Z,5.43
2019-03-05T04:10:01.362Z,4.53
2019-03-05T04:12:29.400Z,6.20
2019-03-05T04:14:57.587Z,6.23
2019-03-05T04:17:25.441Z,6.93
2019-03-05T04:19:55.158Z,7.47
2019-03-05T04:22:37.894Z,6.80
2019-03-05T04:25:19.481Z,4.03
2019-03-05T04:27:50.828Z,2.60
2019-03-05T04:30:22.452Z,5.17
2019-03-05T04:32:51.626Z,7.43
2019-03-05T04:35:38.438Z,6.30
2019-03-05T04:38:12.444Z,2.77
2019-03-05T04:40:44.034Z,7.20
2019-03-05T04:43:19.612Z,5.47
2019-03-05T04:46:06.205Z,7.20
2019-03-05T04:48:40.646Z,3.70
2019-03-05T04:51:39.143Z,7.97
2019-03-05T04:54:13.085Z,5.97
2019-03-05T04:56:47.707Z,5.97
2019-03-05T04:59:26.913Z,6.23
2019-03-05T05:01:59.258Z,2.87
2019-03-05T05:04:37.444Z,5.30
2019-03-05T05:07:17.156Z,6.63
2019-03-05T05:09:49.269Z,9.83
2019-03-05T05:12:22.433Z,8.80
2019-03-05T05:14:59.515Z,3.20
2019-03-05T05:17:41.196Z,8.33
2019-03-05T05:20:18.206Z,3.33
2019-03-05T05:22:57.706Z,3.13
2019-03-05T05:25:33.046Z,7.93
2019-03-05T05:28:00.770Z,5.30
2019-03-05T05:30:38.710Z,1.60
2019-03-05T05:33:06.439Z,3.00
2019-03-05T05:35:34.386Z,7.17
2019-03-05T05:38:02.136Z,4.27
2019-03-05T05:40:32.128Z,3.27
2019-03-05T05:43:00.074Z,5.53
2019-03-05T05:45:33.961Z,4.43
2019-03-05T05:48:01.663Z,4.33
2019-03-05T05:50:30.238Z,7.60
2019-03-05T05:52:58.721Z,2.33
2019-03-05T05:55:26.412Z,4.33
2019-03-05T05:57:54.141Z,3.37
2019-03-05T06:00:22.026Z,3.70
2019-03-05T06:02:49.721Z,4.20
2019-03-05T06:05:18.651Z,8.03
2019-03-05T06:07:46.323Z,7.50
2019-03-05T06:10:14.040Z,7.40
2019-03-05T06:12:42.765Z,6.23
2019-03-05T06:15:10.851Z,3.80
2019-03-05T06:17:38.580Z,5.87
2019-03-05T06:20:08.137Z,5.47
2019-03-05T06:22:36.204Z,5.10
2019-03-05T06:25:04.842Z,4.73
2019-03-05T06:27:32.542Z,2.37
2019-03-05T06:30:00.421Z,6.13
2019-03-05T06:32:28.215Z,4.63
2019-03-05T06:34:56.975Z,13.97
2019-03-05T06:37:24.671Z,6.13
2019-03-05T06:39:52.437Z,7.30
2019-03-05T06:42:20.089Z,6.10
2019-03-05T06:44:47.793Z,10.03
2019-03-05T06:47:15.469Z,9.17
2019-03-05T06:49:43.202Z,9.93
2019-03-05T06:52:11.941Z,11.20
2019-03-05T06:54:39.930Z,9.67
2019-03-05T06:57:07.781Z,5.37
2019-03-05T06:59:35.482Z,3.40
2019-03-05T07:02:03.206Z,6.00
2019-03-05T07:04:31.743Z,4.10
2019-03-05T07:06:59.449Z,6.03
2019-03-05T07:09:57.721Z,5.20
2019-03-05T07:12:35.673Z,9.50
2019-03-05T07:15:51.110Z,3.37
2019-03-05T07:18:23.724Z,3.13
2019-03-05T07:21:15.969Z,5.60
2019-03-05T07:24:09.642Z,6.00
2019-03-05T07:26:37.649Z,6.03
2019-03-05T07:29:05.630Z,4.83
2019-03-05T07:31:33.708Z,6.30
2019-03-05T07:34:04.842Z,6.87
2019-03-05T07:36:32.926Z,5.87
2019-03-05T07:39:01.053Z,7.17
2019-03-05T07:41:28.770Z,4.83
2019-03-05T07:43:56.817Z,8.77
2019-03-05T07:46:24.846Z,3.80
2019-03-05T07:48:52.606Z,6.70
2019-03-05T07:51:20.316Z,9.57
2019-03-05T07:53:48.503Z,6.53
2019-03-05T07:56:16.174Z,5.80
2019-03-05T07:58:44.223Z,7.30
2019-03-05T08:01:21.883Z,8.20
2019-03-05T08:03:41.495Z,2.53
2019-03-05T08:06:09.225Z,9.50
2019-03-05T08:09:13.425Z,3.97
2019-03-05T08:11:41.112Z,7.33
2019-03-05T08:14:59.629Z,10.43
2019-03-05T08:17:27.306Z,8.67
2019-03-05T08:19:55.188Z,7.13
2019-03-05T08:22:22.885Z,7.53
2019-03-05T08:24:50.922Z,5.77
2019-03-05T08:27:18.659Z,8.63
2019-03-05T08:29:46.856Z,10.70
2019-03-05T08:32:14.658Z,6.40
2019-03-05T08:34:42.386Z,5.77
2019-03-05T08:37:13.229Z,6.03
2019-03-05T08:39:40.393Z,8.80
2019-03-05T08:42:08.574Z,4.93
2019-03-05T08:44:36.255Z,4.60
2019-03-05T08:47:04.157Z,8.50
2019-03-05T08:49:31.870Z,5.40
2019-03-05T08:51:59.619Z,13.67
2019-03-05T08:54:28.022Z,6.50
2019-03-05T08:56:55.933Z,5.40
2019-03-05T08:59:23.966Z,7.37
2019-03-05T09:01:52.074Z,7.63
2019-03-05T09:04:20.097Z,4.87
2019-03-05T09:06:48.525Z,30.87
2019-03-05T09:09:16.895Z,8.27
2019-03-05T09:11:46.880Z,9.33
2019-03-05T09:14:15.087Z,11.67
2019-03-05T09:16:42.785Z,7.63
2019-03-05T09:19:10.480Z,10.73
2019-03-05T09:21:38.233Z,9.53
2019-03-05T09:24:06.383Z,7.27
2019-03-05T09:26:34.076Z,14.47
2019-03-05T09:29:01.776Z,9.13
2019-03-05T09:31:29.499Z,6.30
2019-03-05T09:33:57.858Z,4.80
2019-03-05T09:36:27.685Z,8.60
2019-03-05T09:38:55.534Z,15.73
2019-03-05T09:41:23.236Z,8.70
2019-03-05T09:43:50.953Z,19.50
2019-03-05T09:46:18.740Z,7.63
2019-03-05T09:48:46.423Z,12.80
2019-03-05T09:51:14.242Z,8.70
2019-03-05T09:53:41.961Z,5.43
2019-03-05T09:56:09.678Z,14.60
2019-03-05T09:58:37.408Z,7.47
2019-03-05T10:01:05.710Z,10.00
2019-03-05T10:03:33.421Z,17.50
2019-03-05T10:06:01.207Z,11.30
2019-03-05T10:08:32.768Z,7.00
2019-03-05T10:10:58.855Z,7.13
2019-03-05T10:13:26.637Z,6.87
2019-03-05T10:15:54.482Z,8.23
2019-03-05T10:18:22.186Z,6.27
2019-03-05T10:20:50.042Z,5.40
2019-03-05T10:23:17.841Z,5.03
2019-03-05T10:25:45.556Z,15.95
2019-03-05T10:28:28.295Z,9.07
2019-03-05T10:30:55.550Z,7.67
2019-03-05T10:33:23.445Z,7.77
2019-03-05T10:35:51.457Z,10.77
2019-03-05T10:38:19.285Z,6.37
2019-03-05T10:40:47.494Z,5.27
2019-03-05T10:43:15.241Z,10.00
2019-03-05T10:45:45.325Z,8.47
2019-03-05T10:48:14.386Z,5.80
2019-03-05T10:50:42.131Z,6.85
2019-03-05T10:53:12.066Z,3.87
2019-03-05T10:55:39.891Z,7.43
2019-03-05T10:58:07.866Z,10.57
2019-03-05T11:00:38.067Z,7.97
2019-03-05T11:03:05.888Z,9.93
2019-03-05T11:05:36.278Z,9.97
2019-03-05T11:08:04.788Z,10.32
2019-03-05T11:10:33.000Z,8.83
2019-03-05T11:13:00.903Z,10.05
2019-03-05T11:15:28.882Z,2.62
2019-03-05T11:17:56.582Z,7.60
2019-03-05T11:20:26.957Z,7.03
2019-03-05T11:22:54.951Z,6.95
2019-03-05T11:25:22.693Z,5.83
2019-03-05T11:27:50.443Z,8.67
2019-03-05T11:30:36.234Z,4.50
2019-03-05T11:33:08.313Z,7.70
2019-03-05T11:35:45.416Z,5.70
2019-03-05T11:38:29.449Z,9.13
2019-03-05T11:41:04.215Z,7.33
2019-03-05T11:43:36.609Z,10.37
2019-03-05T11:46:15.972Z,5.60
2019-03-05T11:48:49.536Z,9.30
2019-03-05T11:51:27.312Z,9.03
2019-03-05T11:54:04.850Z,7.20
2019-03-05T11:56:50.237Z,6.53
2019-03-05T11:59:27.663Z,5.90
2019-03-05T12:02:00.449Z,4.67
2019-03-05T12:04:49.453Z,7.27
2019-03-05T12:07:31.356Z,3.77
2019-03-05T12:10:09.199Z,4.77
2019-03-05T12:12:51.535Z,4.60
2019-03-05T12:15:23.387Z,6.67
2019-03-05T12:17:53.958Z,6.80
2019-03-05T12:20:23.874Z,6.00
2019-03-05T12:22:53.434Z,3.57
2019-03-05T12:25:23.664Z,4.43
2019-03-05T12:27:50.834Z,4.03
2019-03-05T12:30:20.483Z,4.10
2019-03-05T12:32:49.600Z,5.00
2019-03-05T12:35:19.795Z,3.70
2019-03-05T12:37:48.059Z,5.33
2019-03-05T12:40:17.180Z,6.43
2019-03-05T12:42:45.591Z,5.57
2019-03-05T12:45:14.431Z,4.40
2019-03-05T12:47:42.114Z,7.10
2019-03-05T12:50:20.816Z,7.17
2019-03-05T12:52:52.121Z,7.03
2019-03-05T12:55:20.510Z,7.77
2019-03-05T12:57:48.198Z,5.93
2019-03-05T13:00:19.037Z,6.57
2019-03-05T13:02:46.837Z,4.53
2019-03-05T13:05:17.815Z,4.60
2019-03-05T13:07:46.737Z,4.80
2019-03-05T13:10:19.151Z,5.53
2019-03-05T13:12:47.018Z,4.60
2019-03-05T13:15:17.647Z,8.23
2019-03-05T13:17:47.027Z,6.37
2019-03-05T13:20:15.649Z,9.07
2019-03-05T13:22:43.502Z,9.90
2019-03-05T13:25:15.027Z,11.07
2019-03-05T13:27:42.747Z,7.27
2019-03-05T13:30:13.451Z,6.07
2019-03-05T13:32:41.270Z,7.27
2019-03-05T13:35:10.797Z,10.03
2019-03-05T13:37:38.468Z,8.50
2019-03-05T13:40:07.567Z,14.23
2019-03-05T13:42:35.273Z,7.00
2019-03-05T13:45:05.332Z,5.33
2019-03-05T13:47:32.948Z,6.37
2019-03-05T13:50:11.857Z,5.30
2019-03-05T13:53:30.298Z,13.00
2019-03-05T13:56:51.709Z,5.73
2019-03-05T13:59:46.303Z,6.30
2019-03-05T14:02:20.818Z,4.93
2019-03-05T14:04:59.681Z,9.23
2019-03-05T14:08:22.933Z,5.20
2019-03-05T14:10:56.543Z,3.40
2019-03-05T14:13:28.679Z,7.60
2019-03-05T14:16:00.759Z,9.37
2019-03-05T14:18:31.139Z,6.70
2019-03-05T14:21:03.616Z,11.43
2019-03-05T14:23:33.926Z,4.97
2019-03-05T14:26:14.965Z,7.73
2019-03-05T14:28:51.262Z,7.37
2019-03-05T14:31:26.684Z,4.43
2019-03-05T14:34:03.331Z,3.27
2019-03-05T14:36:40.546Z,7.43
2019-03-05T14:39:51.441Z,5.40
2019-03-05T14:42:43.008Z,5.07
2019-03-05T14:45:28.170Z,6.63
2019-03-05T14:48:16.777Z,6.73
2019-03-05T14:50:50.463Z,6.27
2019-03-05T14:53:28.885Z,7.63
2019-03-05T14:56:20.658Z,12.60
2019-03-05T14:58:53.934Z,5.13
2019-03-05T15:01:26.312Z,5.40
2019-03-05T15:04:16.244Z,6.90
2019-03-05T15:06:52.282Z,4.70
2019-03-05T15:09:24.239Z,6.67
2019-03-05T15:12:22.212Z,6.13
2019-03-05T15:15:07.149Z,9.73
2019-03-05T15:17:48.876Z,9.08
2019-03-05T15:20:25.528Z,9.30
2019-03-05T15:23:00.318Z,6.20
2019-03-05T15:25:38.475Z,5.53
2019-03-05T15:28:12.200Z,3.37
2019-03-05T15:30:45.014Z,8.30
2019-03-05T15:33:36.886Z,12.67
2019-03-05T15:36:05.322Z,11.90
2019-03-05T15:38:44.627Z,6.63
2019-03-05T15:41:37.833Z,9.50
2019-03-05T15:44:15.243Z,8.60
2019-03-05T15:46:50.681Z,6.47
2019-03-05T15:49:29.301Z,5.30
2019-03-05T15:52:06.240Z,10.57
2019-03-05T15:54:41.066Z,6.07
2019-03-05T15:57:15.958Z,7.57
2019-03-05T16:00:06.952Z,7.57
2019-03-05T16:02:47.485Z,10.30
2019-03-05T16:05:26.195Z,7.60
2019-03-05T16:08:06.212Z,7.27
2019-03-05T16:10:36.866Z,10.87
2019-03-05T16:13:15.377Z,11.50
2019-03-05T16:15:51.443Z,6.70
2019-03-05T16:18:23.100Z,6.90
2019-03-05T16:21:07.018Z,6.90
2019-03-05T16:23:39.540Z,7.20
2019-03-05T16:26:16.603Z,5.77
2019-03-05T16:29:03.206Z,8.53
2019-03-05T16:32:08.123Z,4.53
2019-03-05T16:35:00.374Z,13.80
2019-03-05T16:37:57.742Z,7.83
2019-03-05T16:41:10.290Z,7.93
2019-03-05T16:44:09.931Z,3.20
2019-03-05T16:47:13.601Z,8.87
2019-03-05T16:50:10.435Z,7.03
2019-03-05T16:53:13.661Z,8.10
2019-03-05T16:56:29.311Z,7.03
2019-03-05T16:59:19.677Z,7.70
2019-03-05T17:02:03.145Z,6.67
2019-03-05T17:04:59.855Z,13.07
2019-03-05T17:08:03.565Z,14.60
2019-03-05T17:10:55.375Z,10.67
2019-03-05T17:13:23.074Z,15.43
2019-03-05T17:15:57.132Z,17.97
2019-03-05T17:18:25.201Z,11.63
2019-03-05T17:20:53.941Z,13.27
2019-03-05T17:23:21.595Z,9.77
2019-03-05T17:25:49.480Z,12.00
2019-03-05T17:28:31.110Z,11.30
2019-03-05T17:30:59.205Z,10.60
2019-03-05T17:33:30.465Z,10.43
2019-03-05T17:36:07.993Z,13.80
2019-03-05T17:38:35.858Z,7.63
2019-03-05T17:41:04.169Z,8.20
2019-03-05T17:43:32.619Z,6.77
2019-03-05T17:46:00.721Z,18.17
2019-03-05T17:48:28.452Z,31.13
2019-03-05T17:50:56.779Z,14.00
2019-03-05T17:53:24.661Z,13.23
2019-03-05T17:55:52.820Z,12.67
2019-03-05T17:58:21.020Z,10.57
2019-03-05T18:00:48.828Z,11.23
2019-03-05T18:03:16.828Z,9.03
2019-03-05T18:05:45.326Z,18.03
2019-03-05T18:08:13.415Z,7.97
2019-03-05T18:10:41.955Z,13.62
2019-03-05T18:13:11.002Z,15.57
2019-03-05T18:15:41.047Z,13.90
2019-03-05T18:18:08.892Z,18.73
2019-03-05T18:20:37.262Z,25.80
2019-03-05T18:23:05.533Z,16.97
2019-03-05T18:25:33.645Z,27.57
2019-03-05T18:28:04.173Z,32.87
2019-03-05T18:30:35.344Z,25.93
2019-03-05T18:33:03.953Z,27.37
2019-03-05T18:35:32.905Z,28.27
2019-03-05T18:38:01.693Z,19.20
2019-03-05T18:40:31.604Z,25.10
2019-03-05T18:43:01.185Z,19.83
2019-03-05T18:45:29.159Z,30.02
2019-03-05T18:47:57.854Z,28.57
2019-03-05T18:50:25.912Z,18.87
2019-03-05T18:52:54.192Z,27.33
2019-03-05T18:55:22.767Z,26.37
2019-03-05T18:57:51.430Z,27.93
2019-03-05T19:00:21.507Z,24.17
2019-03-05T19:02:50.863Z,24.07
2019-03-05T19:05:19.218Z,23.73
2019-03-05T19:07:47.593Z,26.77
2019-03-05T19:10:16.892Z,18.17
2019-03-05T19:12:44.978Z,22.50
2019-03-05T19:15:15.554Z,29.83
2019-03-05T19:17:44.169Z,24.57
2019-03-05T19:20:14.330Z,23.98
2019-03-05T19:22:42.766Z,25.40
2019-03-05T19:25:14.878Z,14.07
2019-03-05T19:27:42.893Z,20.77
2019-03-05T19:30:13.121Z,14.00
2019-03-05T19:32:41.158Z,10.77
2019-03-05T19:35:09.410Z,23.13
2019-03-05T19:37:37.985Z,14.30
2019-03-05T19:40:07.913Z,14.10
2019-03-05T19:42:36.262Z,14.57
2019-03-05T19:45:04.798Z,21.33
2019-03-05T19:47:33.075Z,15.10
2019-03-05T19:50:01.634Z,13.47
2019-03-05T19:52:29.770Z,14.30
2019-03-05T19:54:58.046Z,16.13
2019-03-05T19:57:26.402Z,17.87
2019-03-05T19:59:54.710Z,21.10
2019-03-05T20:02:22.914Z,16.03
2019-03-05T20:04:51.039Z,13.93
2019-03-05T20:07:19.465Z,14.20
2019-03-05T20:09:47.795Z,21.20
2019-03-05T20:12:15.882Z,12.47
2019-03-05T20:14:44.908Z,11.23
2019-03-05T20:17:13.073Z,16.83
2019-03-05T20:19:41.132Z,13.33
2019-03-05T20:22:09.740Z,13.97
2019-03-05T20:24:38.874Z,12.70
2019-03-05T20:27:15.685Z,12.40
2019-03-05T20:29:37.214Z,15.67
2019-03-05T20:32:05.697Z,12.30
2019-03-05T20:34:34.054Z,14.90
2019-03-05T20:37:02.810Z,10.80
2019-03-05T20:39:31.167Z,18.33
2019-03-05T20:41:59.547Z,15.07
2019-03-05T20:44:27.617Z,12.83
2019-03-05T20:46:56.296Z,11.43
2019-03-05T20:49:27.678Z,13.30
2019-03-05T20:51:56.596Z,12.53
2019-03-05T20:54:24.648Z,11.73
2019-03-05T20:56:52.846Z,10.17
2019-03-05T20:59:21.610Z,12.10
2019-03-05T21:01:50.246Z,10.73
2019-03-05T21:04:18.962Z,13.33
2019-03-05T21:06:47.313Z,10.93
2019-03-05T21:09:20.953Z,8.17
2019-03-05T21:11:48.944Z,9.33
2019-03-05T21:14:17.029Z,12.00
2019-03-05T21:16:46.446Z,11.03
2019-03-05T21:19:14.519Z,11.23
2019-03-05T21:21:42.455Z,13.57
2019-03-05T21:24:11.141Z,15.83
2019-03-05T21:26:39.824Z,16.47
2019-03-05T21:29:07.906Z,19.83
2019-03-05T21:31:36.099Z,17.83
2019-03-05T21:34:04.258Z,18.87
2019-03-05T21:36:32.422Z,25.63
2019-03-05T21:39:00.644Z,20.00
2019-03-05T21:41:28.559Z,20.73
2019-03-05T21:43:56.874Z,20.17
2019-03-05T21:46:24.828Z,14.93
2019-03-05T21:48:52.797Z,19.63
2019-03-05T21:51:21.163Z,25.87
2019-03-05T21:53:49.561Z,31.30
2019-03-05T21:56:17.631Z,35.73
2019-03-05T21:58:46.009Z,28.43
2019-03-05T22:01:14.357Z,21.70
2019-03-05T22:03:42.752Z,28.70
2019-03-05T22:06:10.825Z,24.13
2019-03-05T22:08:39.205Z,19.83
2019-03-05T22:11:07.561Z,21.97
2019-03-05T22:13:35.629Z,20.33
2019-03-05T22:16:03.882Z,22.27
2019-03-05T22:18:32.101Z,22.73
2019-03-05T22:21:00.502Z,25.33
2019-03-05T22:23:28.568Z,23.73
2019-03-05T22:25:57.218Z,23.20
2019-03-05T22:28:25.833Z,24.50
2019-03-05T22:30:54.091Z,16.90
2019-03-05T22:33:22.689Z,21.10
2019-03-05T22:35:51.043Z,16.47
2019-03-05T22:38:19.728Z,24.40
2019-03-05T22:40:48.444Z,19.83
2019-03-05T22:43:17.441Z,14.23
2019-03-05T22:45:45.495Z,18.03
2019-03-05T22:48:14.161Z,13.13
2019-03-05T22:50:42.233Z,19.20
2019-03-05T22:53:10.674Z,14.73
2019-03-05T22:55:38.686Z,15.23
2019-03-05T22:58:07.374Z,15.33
2019-03-05T23:00:57.754Z,13.83
2019-03-05T23:03:26.357Z,10.30
2019-03-05T23:05:54.678Z,12.37
2019-03-05T23:08:23.011Z,13.67
2019-03-05T23:10:51.366Z,13.97
2019-03-05T23:13:19.684Z,8.97
2019-03-05T23:15:47.826Z,13.13
2019-03-05T23:18:16.562Z,8.13
2019-03-05T23:20:45.210Z,9.37
2019-03-05T23:23:13.480Z,8.20
2019-03-05T23:25:41.969Z,12.10
2019-03-05T23:28:10.096Z,13.27
2019-03-05T23:30:38.973Z,9.37
2019-03-05T23:33:06.930Z,12.20
2019-03-05T23:35:35.455Z,10.80
2019-03-05T23:38:03.886Z,7.83
2019-03-05T23:40:32.570Z,7.57
2019-03-05T23:43:01.425Z,7.87
2019-03-05T23:45:29.324Z,11.23
2019-03-05T23:47:57.761Z,11.70
2019-03-05T23:50:27.909Z,7.27
2019-03-05T23:52:56.248Z,12.80
2019-03-05T23:55:24.866Z,7.30
2019-03-05T23:57:53.362Z,6.47
